PWSweather.com
Personal Weather Stations
Station Observations

ThassosGR

Lat: 40.743206, Lon: 24.577205

Elevation: 150

Station Type:

http://www.realestate-thassos.com/weather-thassos/

Latest ConditionsUpdated 4:00:11 PM GMT+02:02 Sunday, Jan 22, 2017
Currently Today's Max Today's Min Today's Average
Temperature 45.9°F7.7°C 46.6°F8.1°C 32.4°F0.2°C 38.2°F3.4°C
Dew Point 17.0°F-8.3°C 35.6°F2.0°C 13.6°F-10.2°C 26.9°F-2.8°C
Winds 4.5 mph ESE7.2 kmh ESE 7.6 mph ESE12.2 kmh ESE - 2.4 mph 3.9 kmh
Wind Gusts 9.8 mph15.8 kmh 16.8 mph27.0 kmh - -
Humidity 31% 87% 26% 69%
Pressure 29.91 in1012.9 mb 30.01 in1016.3 mb 29.91 in1012.9 mb -
Hour Temp Dew Point Humidity Winds Wind Gusts Pressure Precip Precip Rate Daily Precip Total
04:00 PM 45.9°F7.7°C 17.0°F-8.3°C 31% 4.5 mph ESE7.2 kmh ESE 9.8 mph15.8 kmh 29.91 in1012.9 mb 0.00 in0.0 mm 0.00 in0.0 mm 0.00 in0.0 mm
03:46 PM 46.2°F7.9°C 16.5°F-8.6°C 30% 0.7 mph ESE1.1 kmh ESE 9.8 mph15.8 kmh 29.91 in1012.9 mb 0.00 in0.0 mm 0.00 in0.0 mm 0.00 in0.0 mm
03:32 PM 46.2°F7.9°C 14.1°F-9.9°C 27% 3.8 mph E6.1 kmh E 7.6 mph12.2 kmh 29.92 in1013.2 mb 0.00 in0.0 mm 0.00 in0.0 mm 0.00 in0.0 mm
03:18 PM 46.4°F8.0°C 15.1°F-9.4°C 28% 4.5 mph ESE7.2 kmh ESE 10.7 mph17.2 kmh 29.92 in1013.2 mb 0.00 in0.0 mm 0.00 in0.0 mm 0.00 in0.0 mm
03:04 PM 46.6°F8.1°C 13.6°F-10.2°C 26% 1.6 mph E2.6 kmh E 8.3 mph13.4 kmh 29.92 in1013.2 mb 0.00 in0.0 mm 0.00 in0.0 mm 0.00 in0.0 mm
02:50 PM 46.4°F8.0°C 14.3°F-9.8°C 27% 3.8 mph ESE6.1 kmh ESE 9.2 mph14.8 kmh 29.92 in1013.2 mb 0.00 in0.0 mm 0.00 in0.0 mm 0.00 in0.0 mm
02:36 PM 46.4°F8.0°C 15.1°F-9.4°C 28% 4.5 mph SE7.2 kmh SE 10.7 mph17.2 kmh 29.93 in1013.5 mb 0.00 in0.0 mm 0.00 in0.0 mm 0.00 in0.0 mm
02:22 PM 46.0°F7.8°C 14.8°F-9.6°C 28% 3.1 mph SE5.0 kmh SE 13.0 mph20.9 kmh 29.93 in1013.5 mb 0.00 in0.0 mm 0.00 in0.0 mm 0.00 in0.0 mm
02:08 PM 46.0°F7.8°C 14.0°F-10.0°C 27% 2.2 mph ESE3.5 kmh ESE 9.8 mph15.8 kmh 29.94 in1013.9 mb 0.00 in0.0 mm 0.00 in0.0 mm 0.00 in0.0 mm
01:54 PM 45.9°F7.7°C 13.8°F-10.1°C 27% 5.4 mph E8.7 kmh E 11.4 mph18.3 kmh 29.94 in1013.9 mb 0.00 in0.0 mm 0.00 in0.0 mm 0.00 in0.0 mm
01:40 PM 45.7°F7.6°C 16.8°F-8.4°C 31% 3.1 mph E5.0 kmh E 11.4 mph18.3 kmh 29.95 in1014.2 mb 0.00 in0.0 mm 0.00 in0.0 mm 0.00 in0.0 mm
01:26 PM 45.3°F7.4°C 16.5°F-8.6°C 31% 7.6 mph ESE12.2 kmh ESE 16.8 mph27.0 kmh 29.96 in1014.6 mb 0.00 in0.0 mm 0.00 in0.0 mm 0.00 in0.0 mm
01:12 PM 45.3°F7.4°C 18.6°F-7.4°C 34% 3.8 mph ESE6.1 kmh ESE 9.2 mph14.8 kmh 29.96 in1014.6 mb 0.00 in0.0 mm 0.00 in0.0 mm 0.00 in0.0 mm
12:58 PM 45.1°F7.3°C 22.9°F-5.1°C 41% 4.5 mph SE7.2 kmh SE 10.7 mph17.2 kmh 29.97 in1014.9 mb 0.00 in0.0 mm 0.00 in0.0 mm 0.00 in0.0 mm
12:44 PM 45.1°F7.3°C 20.4°F-6.4°C 37% 5.4 mph SE8.7 kmh SE 9.2 mph14.8 kmh 29.98 in1015.2 mb 0.00 in0.0 mm 0.00 in0.0 mm 0.00 in0.0 mm
12:30 PM 45.3°F7.4°C 21.2°F-6.0°C 38% 0.7 mph E1.1 kmh E 7.6 mph12.2 kmh 29.98 in1015.2 mb 0.00 in0.0 mm 0.00 in0.0 mm 0.00 in0.0 mm
12:16 PM 45.3°F7.4°C 21.2°F-6.0°C 38% 2.2 mph SE3.5 kmh SE 8.3 mph13.4 kmh 29.98 in1015.2 mb 0.00 in0.0 mm 0.00 in0.0 mm 0.00 in0.0 mm
12:02 PM 45.3°F7.4°C 23.6°F-4.7°C 42% 3.8 mph SE6.1 kmh SE 8.3 mph13.4 kmh 29.99 in1015.6 mb 0.00 in0.0 mm 0.00 in0.0 mm 0.00 in0.0 mm
11:48 AM 44.6°F7.0°C 28.1°F-2.2°C 52% 2.2 mph ESE3.5 kmh ESE 6.9 mph11.1 kmh 29.99 in1015.6 mb 0.00 in0.0 mm 0.00 in0.0 mm 0.00 in0.0 mm
11:34 AM 43.9°F6.6°C 31.7°F-0.2°C 62% 1.6 mph SE2.6 kmh SE 6.9 mph11.1 kmh 30.00 in1015.9 mb 0.00 in0.0 mm 0.00 in0.0 mm 0.00 in0.0 mm
11:20 AM 43.5°F6.4°C 35.1°F1.7°C 72% 1.6 mph E2.6 kmh E 4.5 mph7.2 kmh 30.00 in1015.9 mb 0.00 in0.0 mm 0.00 in0.0 mm 0.00 in0.0 mm
11:06 AM 43.2°F6.2°C 35.1°F1.7°C 73% 3.1 mph SE5.0 kmh SE 6.0 mph9.7 kmh 30.01 in1016.3 mb 0.00 in0.0 mm 0.00 in0.0 mm 0.00 in0.0 mm
10:52 AM 42.6°F5.9°C 35.6°F2.0°C 76% 3.1 mph SE5.0 kmh SE 6.9 mph11.1 kmh 30.01 in1016.3 mb 0.00 in0.0 mm 0.00 in0.0 mm 0.00 in0.0 mm
10:38 AM 42.3°F5.7°C 35.2°F1.8°C 76% 2.2 mph E3.5 kmh E 6.0 mph9.7 kmh 30.01 in1016.3 mb 0.00 in0.0 mm 0.00 in0.0 mm 0.00 in0.0 mm
10:24 AM 41.9°F5.5°C 35.2°F1.8°C 77% 3.8 mph E6.1 kmh E 7.6 mph12.2 kmh 30.01 in1016.3 mb 0.00 in0.0 mm 0.00 in0.0 mm 0.00 in0.0 mm
10:10 AM 41.7°F5.4°C 34.4°F1.3°C 75% 0.7 mph SE1.1 kmh SE 5.4 mph8.7 kmh 30.01 in1016.3 mb 0.00 in0.0 mm 0.00 in0.0 mm 0.00 in0.0 mm
09:56 AM 41.0°F5.0°C 33.0°F0.6°C 73% 0.7 mph SE1.1 kmh SE 3.8 mph6.1 kmh 30.01 in1016.3 mb 0.00 in0.0 mm 0.00 in0.0 mm 0.00 in0.0 mm
09:42 AM 39.4°F4.1°C 30.4°F-0.9°C 70% 2.2 mph SE3.5 kmh SE 3.8 mph6.1 kmh 30.01 in1016.3 mb 0.00 in0.0 mm 0.00 in0.0 mm 0.00 in0.0 mm
09:28 AM 38.5°F3.6°C 30.6°F-0.8°C 73% 2.2 mph SE3.5 kmh SE 4.5 mph7.2 kmh 30.01 in1016.3 mb 0.00 in0.0 mm 0.00 in0.0 mm 0.00 in0.0 mm
09:14 AM 36.7°F2.6°C 28.2°F-2.1°C 71% 2.2 mph SE3.5 kmh SE 5.4 mph8.7 kmh 30.01 in1016.3 mb 0.00 in0.0 mm 0.00 in0.0 mm 0.00 in0.0 mm
09:00 AM 35.2°F1.8°C 28.8°F-1.8°C 77% 2.2 mph SE3.5 kmh SE 5.4 mph8.7 kmh 30.00 in1015.9 mb 0.00 in0.0 mm 0.00 in0.0 mm 0.00 in0.0 mm
08:46 AM 33.4°F0.8°C 28.3°F-2.1°C 81% 2.2 mph SE3.5 kmh SE 3.8 mph6.1 kmh 30.00 in1015.9 mb 0.00 in0.0 mm 0.00 in0.0 mm 0.00 in0.0 mm
08:32 AM 33.3°F0.7°C 28.7°F-1.8°C 83% 2.2 mph SE3.5 kmh SE 4.5 mph7.2 kmh 30.00 in1015.9 mb 0.00 in0.0 mm 0.00 in0.0 mm 0.00 in0.0 mm
08:18 AM 32.7°F0.4°C 28.1°F-2.2°C 83% 1.6 mph SE2.6 kmh SE 3.8 mph6.1 kmh 29.99 in1015.6 mb 0.00 in0.0 mm 0.00 in0.0 mm 0.00 in0.0 mm
08:04 AM 32.7°F0.4°C 28.1°F-2.2°C 83% 2.2 mph SSE3.5 kmh SSE 4.5 mph7.2 kmh 29.98 in1015.2 mb 0.00 in0.0 mm 0.00 in0.0 mm 0.00 in0.0 mm
07:50 AM 32.4°F0.2°C 27.8°F-2.3°C 83% 2.2 mph SE3.5 kmh SE 3.8 mph6.1 kmh 29.98 in1015.2 mb 0.00 in0.0 mm 0.00 in0.0 mm 0.00 in0.0 mm
07:36 AM 32.5°F0.3°C 28.0°F-2.2°C 83% 1.6 mph SE2.6 kmh SE 3.1 mph5.0 kmh 29.98 in1015.2 mb 0.00 in0.0 mm 0.00 in0.0 mm 0.00 in0.0 mm
07:22 AM 32.5°F0.3°C 28.0°F-2.2°C 83% 0.7 mph SE1.1 kmh SE 3.8 mph6.1 kmh 29.97 in1014.9 mb 0.00 in0.0 mm 0.00 in0.0 mm 0.00 in0.0 mm
07:08 AM 32.5°F0.3°C 28.0°F-2.2°C 83% 1.6 mph SE2.6 kmh SE 3.8 mph6.1 kmh 29.97 in1014.9 mb 0.00 in0.0 mm 0.00 in0.0 mm 0.00 in0.0 mm
06:54 AM 32.7°F0.4°C 28.1°F-2.2°C 83% 2.2 mph SE3.5 kmh SE 3.8 mph6.1 kmh 29.97 in1014.9 mb 0.00 in0.0 mm 0.00 in0.0 mm 0.00 in0.0 mm
06:40 AM 32.7°F0.4°C 28.1°F-2.2°C 83% 1.6 mph SE2.6 kmh SE 3.8 mph6.1 kmh 29.96 in1014.6 mb 0.00 in0.0 mm 0.00 in0.0 mm 0.00 in0.0 mm
06:26 AM 32.4°F0.2°C 28.1°F-2.2°C 84% 1.6 mph SE2.6 kmh SE 3.8 mph6.1 kmh 29.96 in1014.6 mb 0.00 in0.0 mm 0.00 in0.0 mm 0.00 in0.0 mm
06:12 AM 32.7°F0.4°C 28.1°F-2.2°C 83% 1.6 mph SE2.6 kmh SE 3.1 mph5.0 kmh 29.94 in1013.9 mb 0.00 in0.0 mm 0.00 in0.0 mm 0.00 in0.0 mm
05:58 AM 33.1°F0.6°C 28.8°F-1.8°C 84% 1.6 mph SE2.6 kmh SE 4.5 mph7.2 kmh 29.94 in1013.9 mb 0.00 in0.0 mm 0.00 in0.0 mm 0.00 in0.0 mm
05:44 AM 33.3°F0.7°C 29.3°F-1.5°C 85% 2.2 mph SE3.5 kmh SE 4.5 mph7.2 kmh 29.93 in1013.5 mb 0.00 in0.0 mm 0.00 in0.0 mm 0.00 in0.0 mm
05:30 AM 33.3°F0.7°C 29.3°F-1.5°C 85% 2.2 mph SE3.5 kmh SE 4.5 mph7.2 kmh 29.93 in1013.5 mb 0.00 in0.0 mm 0.00 in0.0 mm 0.00 in0.0 mm
05:16 AM 33.4°F0.8°C 29.4°F-1.4°C 85% 1.6 mph SE2.6 kmh SE 4.5 mph7.2 kmh 29.93 in1013.5 mb 0.00 in0.0 mm 0.00 in0.0 mm 0.00 in0.0 mm
05:02 AM 33.4°F0.8°C 29.7°F-1.3°C 86% 3.1 mph SE5.0 kmh SE 5.4 mph8.7 kmh 29.93 in1013.5 mb 0.00 in0.0 mm 0.00 in0.0 mm 0.00 in0.0 mm
04:48 AM 34.0°F1.1°C 30.2°F-1.0°C 86% 2.2 mph SE3.5 kmh SE 5.4 mph8.7 kmh 29.93 in1013.5 mb 0.00 in0.0 mm 0.00 in0.0 mm 0.00 in0.0 mm
04:34 AM 33.8°F1.0°C 30.4°F-0.9°C 87% 1.6 mph SE2.6 kmh SE 4.5 mph7.2 kmh 29.93 in1013.5 mb 0.00 in0.0 mm 0.00 in0.0 mm 0.00 in0.0 mm
04:20 AM 33.6°F0.9°C 30.2°F-1.0°C 87% 2.2 mph SE3.5 kmh SE 4.5 mph7.2 kmh 29.93 in1013.5 mb 0.00 in0.0 mm 0.00 in0.0 mm 0.00 in0.0 mm
04:06 AM 33.6°F0.9°C 30.2°F-1.0°C 87% 3.1 mph SE5.0 kmh SE 3.8 mph6.1 kmh 29.93 in1013.5 mb 0.00 in0.0 mm 0.00 in0.0 mm 0.00 in0.0 mm
03:52 AM 34.0°F1.1°C 30.5°F-0.8°C 87% 0.7 mph SE1.1 kmh SE 4.5 mph7.2 kmh 29.94 in1013.9 mb 0.00 in0.0 mm 0.00 in0.0 mm 0.00 in0.0 mm
03:38 AM 33.8°F1.0°C 30.4°F-0.9°C 87% 2.2 mph SE3.5 kmh SE 4.5 mph7.2 kmh 29.93 in1013.5 mb 0.00 in0.0 mm 0.00 in0.0 mm 0.00 in0.0 mm
03:24 AM 33.8°F1.0°C 30.4°F-0.9°C 87% 2.2 mph SE3.5 kmh SE 3.8 mph6.1 kmh 29.93 in1013.5 mb 0.00 in0.0 mm 0.00 in0.0 mm 0.00 in0.0 mm
03:10 AM 34.2°F1.2°C 30.7°F-0.7°C 87% 1.6 mph SE2.6 kmh SE 5.4 mph8.7 kmh 29.93 in1013.5 mb 0.00 in0.0 mm 0.00 in0.0 mm 0.00 in0.0 mm
02:56 AM 33.8°F1.0°C 30.4°F-0.9°C 87% 1.6 mph SE2.6 kmh SE 4.5 mph7.2 kmh 29.94 in1013.9 mb 0.00 in0.0 mm 0.00 in0.0 mm 0.00 in0.0 mm
02:42 AM 33.8°F1.0°C 30.4°F-0.9°C 87% 2.2 mph SE3.5 kmh SE 3.8 mph6.1 kmh 29.94 in1013.9 mb 0.00 in0.0 mm 0.00 in0.0 mm 0.00 in0.0 mm
02:28 AM 33.8°F1.0°C 30.1°F-1.1°C 86% 1.6 mph SE2.6 kmh SE 3.1 mph5.0 kmh 29.93 in1013.5 mb 0.00 in0.0 mm 0.00 in0.0 mm 0.00 in0.0 mm
02:14 AM 34.0°F1.1°C 30.2°F-1.0°C 86% 3.1 mph SE5.0 kmh SE 4.5 mph7.2 kmh 29.93 in1013.5 mb 0.00 in0.0 mm 0.00 in0.0 mm 0.00 in0.0 mm
02:00 AM 34.2°F1.2°C 30.4°F-0.9°C 86% 2.2 mph SE3.5 kmh SE 3.1 mph5.0 kmh 29.93 in1013.5 mb 0.00 in0.0 mm 0.00 in0.0 mm 0.00 in0.0 mm
01:46 AM 34.3°F1.3°C 30.6°F-0.8°C 86% 1.6 mph SE2.6 kmh SE 3.8 mph6.1 kmh 29.93 in1013.5 mb 0.00 in0.0 mm 0.00 in0.0 mm 0.00 in0.0 mm
01:32 AM 34.3°F1.3°C 30.6°F-0.8°C 86% 1.6 mph SE2.6 kmh SE 4.5 mph7.2 kmh 29.93 in1013.5 mb 0.00 in0.0 mm 0.00 in0.0 mm 0.00 in0.0 mm
01:18 AM 34.5°F1.4°C 30.8°F-0.7°C 86% 2.2 mph SE3.5 kmh SE 3.8 mph6.1 kmh 29.92 in1013.2 mb 0.00 in0.0 mm 0.00 in0.0 mm 0.00 in0.0 mm
01:04 AM 34.3°F1.3°C 30.6°F-0.8°C 86% 1.6 mph SE2.6 kmh SE 5.4 mph8.7 kmh 29.93 in1013.5 mb 0.00 in0.0 mm 0.00 in0.0 mm 0.00 in0.0 mm
12:50 AM 34.5°F1.4°C 30.8°F-0.7°C 86% 1.6 mph SE2.6 kmh SE 4.5 mph7.2 kmh 29.92 in1013.2 mb 0.00 in0.0 mm 0.00 in0.0 mm 0.00 in0.0 mm
12:36 AM 34.5°F1.4°C 30.8°F-0.7°C 86% 2.2 mph SE3.5 kmh SE 3.8 mph6.1 kmh 29.92 in1013.2 mb 0.00 in0.0 mm 0.00 in0.0 mm 0.00 in0.0 mm
12:22 AM 34.5°F1.4°C 30.8°F-0.7°C 86% 1.6 mph SE2.6 kmh SE 3.8 mph6.1 kmh 29.92 in1013.2 mb 0.00 in0.0 mm 0.00 in0.0 mm 0.00 in0.0 mm
12:08 AM 34.5°F1.4°C 30.8°F-0.7°C 86% 2.2 mph SE3.5 kmh SE 5.4 mph8.7 kmh 29.92 in1013.2 mb 0.00 in0.0 mm 0.00 in0.0 mm 0.00 in0.0 mm